sensor_id;sensor_type;location;lat;lon;timestamp;P1;durP1;ratioP1;P2;durP2;ratioP2
553;SDS011;59;48.778;9.156;2023-06-04T00:00:47;7.97;;;6.93;;
553;SDS011;59;48.778;9.156;2023-06-04T00:03:13;9.27;;;6.97;;
553;SDS011;59;48.778;9.156;2023-06-04T00:05:39;8.70;;;7.17;;
553;SDS011;59;48.778;9.156;2023-06-04T00:08:04;10.10;;;6.97;;
553;SDS011;59;48.778;9.156;2023-06-04T00:10:30;8.10;;;7.07;;
553;SDS011;59;48.778;9.156;2023-06-04T00:12:57;9.03;;;6.87;;
553;SDS011;59;48.778;9.156;2023-06-04T00:15:26;9.40;;;7.30;;
553;SDS011;59;48.778;9.156;2023-06-04T00:17:52;8.43;;;6.50;;
553;SDS011;59;48.778;9.156;2023-06-04T00:20:17;9.07;;;7.07;;
553;SDS011;59;48.778;9.156;2023-06-04T00:22:43;7.37;;;6.40;;
553;SDS011;59;48.778;9.156;2023-06-04T00:25:09;9.23;;;6.97;;
553;SDS011;59;48.778;9.156;2023-06-04T00:27:35;7.20;;;6.30;;
553;SDS011;59;48.778;9.156;2023-06-04T00:30:02;8.73;;;6.63;;
553;SDS011;59;48.778;9.156;2023-06-04T00:32:29;9.07;;;7.47;;
553;SDS011;59;48.778;9.156;2023-06-04T00:34:55;8.40;;;6.37;;
553;SDS011;59;48.778;9.156;2023-06-04T00:37:23;9.33;;;7.03;;
553;SDS011;59;48.778;9.156;2023-06-04T00:39:52;8.03;;;6.33;;
553;SDS011;59;48.778;9.156;2023-06-04T00:42:18;7.30;;;5.97;;
553;SDS011;59;48.778;9.156;2023-06-04T00:44:44;7.83;;;6.30;;
553;SDS011;59;48.778;9.156;2023-06-04T00:47:14;8.10;;;6.50;;
553;SDS011;59;48.778;9.156;2023-06-04T00:49:40;7.83;;;6.30;;
553;SDS011;59;48.778;9.156;2023-06-04T00:52:07;9.20;;;6.80;;
553;SDS011;59;48.778;9.156;2023-06-04T00:54:34;7.70;;;6.10;;
553;SDS011;59;48.778;9.156;2023-06-04T00:57:00;9.43;;;6.70;;
553;SDS011;59;48.778;9.156;2023-06-04T00:59:26;9.97;;;6.30;;
553;SDS011;59;48.778;9.156;2023-06-04T01:01:56;10.77;;;6.50;;
553;SDS011;59;48.778;9.156;2023-06-04T01:04:26;6.80;;;5.63;;
553;SDS011;59;48.778;9.156;2023-06-04T01:06:56;9.00;;;6.80;;
553;SDS011;59;48.778;9.156;2023-06-04T01:09:28;8.00;;;6.40;;
553;SDS011;59;48.778;9.156;2023-06-04T01:11:54;8.13;;;6.10;;
553;SDS011;59;48.778;9.156;2023-06-04T01:14:23;8.60;;;6.90;;
553;SDS011;59;48.778;9.156;2023-06-04T01:22:27;10.60;;;6.77;;
553;SDS011;59;48.778;9.156;2023-06-04T01:27:58;7.63;;;6.63;;
553;SDS011;59;48.778;9.156;2023-06-04T01:30:32;7.90;;;6.70;;
553;SDS011;59;48.778;9.156;2023-06-04T01:33:07;7.33;;;6.33;;
553;SDS011;59;48.778;9.156;2023-06-04T01:35:33;8.03;;;6.20;;
553;SDS011;59;48.778;9.156;2023-06-04T01:37:59;7.83;;;6.00;;
553;SDS011;59;48.778;9.156;2023-06-04T01:40:25;6.50;;;5.47;;
553;SDS011;59;48.778;9.156;2023-06-04T01:42:51;7.33;;;5.83;;
553;SDS011;59;48.778;9.156;2023-06-04T01:45:17;9.37;;;6.70;;
553;SDS011;59;48.778;9.156;2023-06-04T01:47:43;7.77;;;6.50;;
553;SDS011;59;48.778;9.156;2023-06-04T01:50:08;9.17;;;7.00;;
553;SDS011;59;48.778;9.156;2023-06-04T01:52:38;9.97;;;7.20;;
553;SDS011;59;48.778;9.156;2023-06-04T01:55:04;7.70;;;6.00;;
553;SDS011;59;48.778;9.156;2023-06-04T01:57:34;7.83;;;6.17;;
553;SDS011;59;48.778;9.156;2023-06-04T02:00:01;7.37;;;6.00;;
553;SDS011;59;48.778;9.156;2023-06-04T02:02:29;8.00;;;6.37;;
553;SDS011;59;48.778;9.156;2023-06-04T02:04:54;7.83;;;6.50;;
553;SDS011;59;48.778;9.156;2023-06-04T02:07:20;9.90;;;6.33;;
553;SDS011;59;48.778;9.156;2023-06-04T02:09:49;8.43;;;5.80;;
553;SDS011;59;48.778;9.156;2023-06-04T02:12:15;7.50;;;5.93;;
553;SDS011;59;48.778;9.156;2023-06-04T02:14:41;7.53;;;6.30;;
553;SDS011;59;48.778;9.156;2023-06-04T02:17:08;7.50;;;5.80;;
553;SDS011;59;48.778;9.156;2023-06-04T02:19:41;7.57;;;6.27;;
553;SDS011;59;48.778;9.156;2023-06-04T02:22:10;7.50;;;5.80;;
553;SDS011;59;48.778;9.156;2023-06-04T02:24:36;6.77;;;5.43;;
553;SDS011;59;48.778;9.156;2023-06-04T02:27:04;8.10;;;5.33;;
553;SDS011;59;48.778;9.156;2023-06-04T02:29:30;7.77;;;5.77;;
553;SDS011;59;48.778;9.156;2023-06-04T02:31:56;9.03;;;5.87;;
553;SDS011;59;48.778;9.156;2023-06-04T02:34:21;9.53;;;5.50;;
553;SDS011;59;48.778;9.156;2023-06-04T02:36:48;7.07;;;5.57;;
553;SDS011;59;48.778;9.156;2023-06-04T02:39:15;6.50;;;5.40;;
553;SDS011;59;48.778;9.156;2023-06-04T02:41:42;5.57;;;5.03;;
553;SDS011;59;48.778;9.156;2023-06-04T02:44:07;6.10;;;5.03;;
553;SDS011;59;48.778;9.156;2023-06-04T02:46:33;8.20;;;5.27;;
553;SDS011;59;48.778;9.156;2023-06-04T02:48:58;8.80;;;6.30;;
553;SDS011;59;48.778;9.156;2023-06-04T02:51:24;7.13;;;5.37;;
553;SDS011;59;48.778;9.156;2023-06-04T02:53:50;7.53;;;5.30;;
553;SDS011;59;48.778;9.156;2023-06-04T03:01:49;11.53;;;6.27;;
553;SDS011;59;48.778;9.156;2023-06-04T03:04:15;7.50;;;5.80;;
553;SDS011;59;48.778;9.156;2023-06-04T03:06:41;7.93;;;6.37;;
553;SDS011;59;48.778;9.156;2023-06-04T03:09:10;7.83;;;5.90;;
553;SDS011;59;48.778;9.156;2023-06-04T03:11:36;7.07;;;5.30;;
553;SDS011;59;48.778;9.156;2023-06-04T03:14:02;6.93;;;5.20;;
553;SDS011;59;48.778;9.156;2023-06-04T03:16:27;6.50;;;5.00;;
553;SDS011;59;48.778;9.156;2023-06-04T03:18:53;6.67;;;5.00;;
553;SDS011;59;48.778;9.156;2023-06-04T03:21:19;7.07;;;5.20;;
553;SDS011;59;48.778;9.156;2023-06-04T03:23:45;5.90;;;4.73;;
553;SDS011;59;48.778;9.156;2023-06-04T03:26:10;4.97;;;4.40;;
553;SDS011;59;48.778;9.156;2023-06-04T03:28:38;4.97;;;4.70;;
553;SDS011;59;48.778;9.156;2023-06-04T03:31:03;6.93;;;5.20;;
553;SDS011;59;48.778;9.156;2023-06-04T03:33:30;5.90;;;4.73;;
553;SDS011;59;48.778;9.156;2023-06-04T03:35:56;6.23;;;4.77;;
553;SDS011;59;48.778;9.156;2023-06-04T03:38:24;7.10;;;4.47;;
553;SDS011;59;48.778;9.156;2023-06-04T03:40:50;5.87;;;4.60;;
553;SDS011;59;48.778;9.156;2023-06-04T03:43:18;6.63;;;4.50;;
553;SDS011;59;48.778;9.156;2023-06-04T03:45:46;6.77;;;4.60;;
553;SDS011;59;48.778;9.156;2023-06-04T03:48:11;4.87;;;4.00;;
553;SDS011;59;48.778;9.156;2023-06-04T03:50:37;6.20;;;4.27;;
553;SDS011;59;48.778;9.156;2023-06-04T03:53:03;6.03;;;4.20;;
553;SDS011;59;48.778;9.156;2023-06-04T03:55:31;5.70;;;4.50;;
553;SDS011;59;48.778;9.156;2023-06-04T03:57:57;6.23;;;4.40;;
553;SDS011;59;48.778;9.156;2023-06-04T04:00:23;6.30;;;4.07;;
553;SDS011;59;48.778;9.156;2023-06-04T04:02:49;8.40;;;4.80;;
553;SDS011;59;48.778;9.156;2023-06-04T04:05:15;5.97;;;4.60;;
553;SDS011;59;48.778;9.156;2023-06-04T04:07:42;6.10;;;4.80;;
553;SDS011;59;48.778;9.156;2023-06-04T04:10:07;4.80;;;4.20;;
553;SDS011;59;48.778;9.156;2023-06-04T04:12:33;5.80;;;4.70;;
553;SDS011;59;48.778;9.156;2023-06-04T04:14:59;6.80;;;4.90;;
553;SDS011;59;48.778;9.156;2023-06-04T04:17:25;5.77;;;4.60;;
553;SDS011;59;48.778;9.156;2023-06-04T04:19:51;5.83;;;4.07;;
553;SDS011;59;48.778;9.156;2023-06-04T04:22:16;5.20;;;4.40;;
553;SDS011;59;48.778;9.156;2023-06-04T04:24:42;4.83;;;4.20;;
553;SDS011;59;48.778;9.156;2023-06-04T04:27:08;6.70;;;4.37;;
553;SDS011;59;48.778;9.156;2023-06-04T04:29:36;7.07;;;4.40;;
553;SDS011;59;48.778;9.156;2023-06-04T04:32:02;5.60;;;4.47;;
553;SDS011;59;48.778;9.156;2023-06-04T04:34:35;5.80;;;4.40;;
553;SDS011;59;48.778;9.156;2023-06-04T04:37:05;5.97;;;4.20;;
553;SDS011;59;48.778;9.156;2023-06-04T04:39:33;5.70;;;4.57;;
553;SDS011;59;48.778;9.156;2023-06-04T04:41:59;5.47;;;4.47;;
553;SDS011;59;48.778;9.156;2023-06-04T04:44:25;5.53;;;4.40;;
553;SDS011;59;48.778;9.156;2023-06-04T04:46:51;7.33;;;4.40;;
553;SDS011;59;48.778;9.156;2023-06-04T04:49:16;4.53;;;4.17;;
553;SDS011;59;48.778;9.156;2023-06-04T04:51:42;5.10;;;4.13;;
553;SDS011;59;48.778;9.156;2023-06-04T04:54:08;4.90;;;3.97;;
553;SDS011;59;48.778;9.156;2023-06-04T04:56:33;7.93;;;4.80;;
553;SDS011;59;48.778;9.156;2023-06-04T04:59:05;5.47;;;4.03;;
553;SDS011;59;48.778;9.156;2023-06-04T05:01:31;5.30;;;4.17;;
553;SDS011;59;48.778;9.156;2023-06-04T05:03:56;7.83;;;5.17;;
553;SDS011;59;48.778;9.156;2023-06-04T05:06:22;5.50;;;4.00;;
553;SDS011;59;48.778;9.156;2023-06-04T05:08:47;5.43;;;4.17;;
553;SDS011;59;48.778;9.156;2023-06-04T05:11:13;6.17;;;4.30;;
553;SDS011;59;48.778;9.156;2023-06-04T05:13:39;6.73;;;4.30;;
553;SDS011;59;48.778;9.156;2023-06-04T05:16:06;4.93;;;4.27;;
553;SDS011;59;48.778;9.156;2023-06-04T05:18:33;5.10;;;4.30;;
553;SDS011;59;48.778;9.156;2023-06-04T05:20:59;5.57;;;3.87;;
553;SDS011;59;48.778;9.156;2023-06-04T05:23:27;6.13;;;4.23;;
553;SDS011;59;48.778;9.156;2023-06-04T05:25:54;5.00;;;3.90;;
553;SDS011;59;48.778;9.156;2023-06-04T05:28:20;5.17;;;4.07;;
553;SDS011;59;48.778;9.156;2023-06-04T05:30:49;4.30;;;3.63;;
553;SDS011;59;48.778;9.156;2023-06-04T05:33:17;7.00;;;3.80;;
553;SDS011;59;48.778;9.156;2023-06-04T05:35:46;4.10;;;3.70;;
553;SDS011;59;48.778;9.156;2023-06-04T05:38:13;5.03;;;3.67;;
553;SDS011;59;48.778;9.156;2023-06-04T05:40:43;4.70;;;3.70;;
553;SDS011;59;48.778;9.156;2023-06-04T05:43:09;5.37;;;3.80;;
553;SDS011;59;48.778;9.156;2023-06-04T05:45:35;4.70;;;3.50;;
553;SDS011;59;48.778;9.156;2023-06-04T05:48:01;4.00;;;3.33;;
553;SDS011;59;48.778;9.156;2023-06-04T05:50:27;4.53;;;3.50;;
553;SDS011;59;48.778;9.156;2023-06-04T05:52:52;5.50;;;3.37;;
553;SDS011;59;48.778;9.156;2023-06-04T05:55:18;5.17;;;3.40;;
553;SDS011;59;48.778;9.156;2023-06-04T05:57:44;5.43;;;3.67;;
553;SDS011;59;48.778;9.156;2023-06-04T06:00:10;4.60;;;3.60;;
553;SDS011;59;48.778;9.156;2023-06-04T06:02:36;5.90;;;3.83;;
553;SDS011;59;48.778;9.156;2023-06-04T06:05:05;7.73;;;4.17;;
553;SDS011;59;48.778;9.156;2023-06-04T06:07:34;8.43;;;4.67;;
553;SDS011;59;48.778;9.156;2023-06-04T06:10:00;5.17;;;4.07;;
553;SDS011;59;48.778;9.156;2023-06-04T06:12:27;4.40;;;3.63;;
553;SDS011;59;48.778;9.156;2023-06-04T06:14:53;4.93;;;3.53;;
553;SDS011;59;48.778;9.156;2023-06-04T06:17:19;3.90;;;3.40;;
553;SDS011;59;48.778;9.156;2023-06-04T06:19:44;5.23;;;3.63;;
553;SDS011;59;48.778;9.156;2023-06-04T06:22:10;3.87;;;2.83;;
553;SDS011;59;48.778;9.156;2023-06-04T06:24:36;5.20;;;3.47;;
553;SDS011;59;48.778;9.156;2023-06-04T06:27:02;5.03;;;3.47;;
553;SDS011;59;48.778;9.156;2023-06-04T06:29:28;6.27;;;3.23;;
553;SDS011;59;48.778;9.156;2023-06-04T06:31:54;3.87;;;3.10;;
553;SDS011;59;48.778;9.156;2023-06-04T06:34:20;4.97;;;3.50;;
553;SDS011;59;48.778;9.156;2023-06-04T06:36:46;4.10;;;3.30;;
553;SDS011;59;48.778;9.156;2023-06-04T06:39:15;6.47;;;3.50;;
553;SDS011;59;48.778;9.156;2023-06-04T06:41:41;3.27;;;3.10;;
553;SDS011;59;48.778;9.156;2023-06-04T06:44:07;5.37;;;3.70;;
553;SDS011;59;48.778;9.156;2023-06-04T06:49:45;4.30;;;3.00;;
553;SDS011;59;48.778;9.156;2023-06-04T06:52:11;7.27;;;2.77;;
553;SDS011;59;48.778;9.156;2023-06-04T06:54:52;4.63;;;3.20;;
553;SDS011;59;48.778;9.156;2023-06-04T06:57:17;3.37;;;3.00;;
553;SDS011;59;48.778;9.156;2023-06-04T06:59:43;5.40;;;3.13;;
553;SDS011;59;48.778;9.156;2023-06-04T07:02:09;4.43;;;2.87;;
553;SDS011;59;48.778;9.156;2023-06-04T07:04:35;4.83;;;3.20;;
553;SDS011;59;48.778;9.156;2023-06-04T07:07:01;5.57;;;3.47;;
553;SDS011;59;48.778;9.156;2023-06-04T07:09:28;6.33;;;3.10;;
553;SDS011;59;48.778;9.156;2023-06-04T07:11:53;3.57;;;2.43;;
553;SDS011;59;48.778;9.156;2023-06-04T07:14:19;5.63;;;3.40;;
553;SDS011;59;48.778;9.156;2023-06-04T07:16:45;4.23;;;3.10;;
553;SDS011;59;48.778;9.156;2023-06-04T07:19:11;3.73;;;2.90;;
553;SDS011;59;48.778;9.156;2023-06-04T07:21:36;3.77;;;3.00;;
553;SDS011;59;48.778;9.156;2023-06-04T07:24:02;6.60;;;2.80;;
553;SDS011;59;48.778;9.156;2023-06-04T07:26:28;6.60;;;3.50;;
553;SDS011;59;48.778;9.156;2023-06-04T07:28:55;5.40;;;3.47;;
553;SDS011;59;48.778;9.156;2023-06-04T07:31:22;5.03;;;3.60;;
553;SDS011;59;48.778;9.156;2023-06-04T07:33:47;4.40;;;3.30;;
553;SDS011;59;48.778;9.156;2023-06-04T07:36:13;4.57;;;3.07;;
553;SDS011;59;48.778;9.156;2023-06-04T07:38:39;3.40;;;2.97;;
553;SDS011;59;48.778;9.156;2023-06-04T07:41:05;5.43;;;3.27;;
553;SDS011;59;48.778;9.156;2023-06-04T07:43:32;3.70;;;3.00;;
553;SDS011;59;48.778;9.156;2023-06-04T07:45:59;4.03;;;3.27;;
553;SDS011;59;48.778;9.156;2023-06-04T07:48:24;3.70;;;3.00;;
553;SDS011;59;48.778;9.156;2023-06-04T07:50:55;5.27;;;3.33;;
553;SDS011;59;48.778;9.156;2023-06-04T07:53:22;5.20;;;3.33;;
553;SDS011;59;48.778;9.156;2023-06-04T07:55:49;3.93;;;3.10;;
553;SDS011;59;48.778;9.156;2023-06-04T07:58:15;3.50;;;3.00;;
553;SDS011;59;48.778;9.156;2023-06-04T08:00:41;5.37;;;3.23;;
553;SDS011;59;48.778;9.156;2023-06-04T08:03:07;7.23;;;3.80;;
553;SDS011;59;48.778;9.156;2023-06-04T08:08:19;5.80;;;3.30;;
553;SDS011;59;48.778;9.156;2023-06-04T08:10:45;4.17;;;3.43;;
553;SDS011;59;48.778;9.156;2023-06-04T08:13:11;4.60;;;2.67;;
553;SDS011;59;48.778;9.156;2023-06-04T08:15:36;4.00;;;3.20;;
553;SDS011;59;48.778;9.156;2023-06-04T08:18:02;4.17;;;3.20;;
553;SDS011;59;48.778;9.156;2023-06-04T08:20:29;5.70;;;3.50;;
553;SDS011;59;48.778;9.156;2023-06-04T08:22:54;4.23;;;3.13;;
553;SDS011;59;48.778;9.156;2023-06-04T08:25:20;6.00;;;3.93;;
553;SDS011;59;48.778;9.156;2023-06-04T08:27:46;6.73;;;3.40;;
553;SDS011;59;48.778;9.156;2023-06-04T08:30:12;4.60;;;3.40;;
553;SDS011;59;48.778;9.156;2023-06-04T08:32:38;4.60;;;3.53;;
553;SDS011;59;48.778;9.156;2023-06-04T08:35:05;5.87;;;3.43;;
553;SDS011;59;48.778;9.156;2023-06-04T08:37:31;6.00;;;3.53;;
553;SDS011;59;48.778;9.156;2023-06-04T08:39:57;5.30;;;3.43;;
553;SDS011;59;48.778;9.156;2023-06-04T08:42:27;4.10;;;3.37;;
553;SDS011;59;48.778;9.156;2023-06-04T08:44:54;5.33;;;3.83;;
553;SDS011;59;48.778;9.156;2023-06-04T08:47:23;4.93;;;3.90;;
553;SDS011;59;48.778;9.156;2023-06-04T08:49:51;13.20;;;8.40;;
553;SDS011;59;48.778;9.156;2023-06-04T08:52:17;10.07;;;7.73;;
553;SDS011;59;48.778;9.156;2023-06-04T08:54:49;10.20;;;6.07;;
553;SDS011;59;48.778;9.156;2023-06-04T08:57:17;5.70;;;4.30;;
553;SDS011;59;48.778;9.156;2023-06-04T08:59:49;5.07;;;3.83;;
553;SDS011;59;48.778;9.156;2023-06-04T09:02:15;6.27;;;4.03;;
553;SDS011;59;48.778;9.156;2023-06-04T09:04:43;4.70;;;3.57;;
553;SDS011;59;48.778;9.156;2023-06-04T09:07:10;4.00;;;3.50;;
553;SDS011;59;48.778;9.156;2023-06-04T09:09:37;4.27;;;3.33;;
553;SDS011;59;48.778;9.156;2023-06-04T09:12:05;5.17;;;3.13;;
553;SDS011;59;48.778;9.156;2023-06-04T09:14:35;4.20;;;3.20;;
553;SDS011;59;48.778;9.156;2023-06-04T09:17:01;9.40;;;6.87;;
553;SDS011;59;48.778;9.156;2023-06-04T09:19:27;41.13;;;24.70;;
553;SDS011;59;48.778;9.156;2023-06-04T09:21:56;65.70;;;43.80;;
553;SDS011;59;48.778;9.156;2023-06-04T09:24:38;89.37;;;60.73;;
553;SDS011;59;48.778;9.156;2023-06-04T09:29:38;38.37;;;27.10;;
553;SDS011;59;48.778;9.156;2023-06-04T09:32:04;29.70;;;19.57;;
553;SDS011;59;48.778;9.156;2023-06-04T09:34:30;20.87;;;17.10;;
553;SDS011;59;48.778;9.156;2023-06-04T09:36:56;35.27;;;29.00;;
553;SDS011;59;48.778;9.156;2023-06-04T09:39:22;42.57;;;34.10;;
553;SDS011;59;48.778;9.156;2023-06-04T09:41:58;31.20;;;25.47;;
553;SDS011;59;48.778;9.156;2023-06-04T09:44:28;27.20;;;21.37;;
553;SDS011;59;48.778;9.156;2023-06-04T09:46:57;23.60;;;19.10;;
553;SDS011;59;48.778;9.156;2023-06-04T09:49:23;22.33;;;17.33;;
553;SDS011;59;48.778;9.156;2023-06-04T09:51:49;12.10;;;10.00;;
553;SDS011;59;48.778;9.156;2023-06-04T09:54:15;9.57;;;7.00;;
553;SDS011;59;48.778;9.156;2023-06-04T09:56:41;6.37;;;4.93;;
553;SDS011;59;48.778;9.156;2023-06-04T09:59:08;6.07;;;4.33;;
553;SDS011;59;48.778;9.156;2023-06-04T10:01:35;6.40;;;4.17;;
553;SDS011;59;48.778;9.156;2023-06-04T10:04:04;5.80;;;4.50;;
553;SDS011;59;48.778;9.156;2023-06-04T10:06:32;5.50;;;3.87;;
553;SDS011;59;48.778;9.156;2023-06-04T10:08:59;5.20;;;3.67;;
553;SDS011;59;48.778;9.156;2023-06-04T10:11:40;4.77;;;3.60;;
553;SDS011;59;48.778;9.156;2023-06-04T10:16:48;5.97;;;3.73;;
553;SDS011;59;48.778;9.156;2023-06-04T10:19:16;8.93;;;4.00;;
553;SDS011;59;48.778;9.156;2023-06-04T10:21:43;3.97;;;3.63;;
553;SDS011;59;48.778;9.156;2023-06-04T10:24:09;4.90;;;3.90;;
553;SDS011;59;48.778;9.156;2023-06-04T10:26:35;5.80;;;4.00;;
553;SDS011;59;48.778;9.156;2023-06-04T10:29:02;4.30;;;3.80;;
553;SDS011;59;48.778;9.156;2023-06-04T10:31:28;6.40;;;3.80;;
553;SDS011;59;48.778;9.156;2023-06-04T10:33:55;7.60;;;4.47;;
553;SDS011;59;48.778;9.156;2023-06-04T10:36:22;5.63;;;4.13;;
553;SDS011;59;48.778;9.156;2023-06-04T10:38:48;4.80;;;3.67;;
553;SDS011;59;48.778;9.156;2023-06-04T10:41:18;5.90;;;4.13;;
553;SDS011;59;48.778;9.156;2023-06-04T10:43:46;6.90;;;4.53;;
553;SDS011;59;48.778;9.156;2023-06-04T10:46:16;5.90;;;4.37;;
553;SDS011;59;48.778;9.156;2023-06-04T10:48:50;5.20;;;4.00;;
553;SDS011;59;48.778;9.156;2023-06-04T10:51:29;6.87;;;4.57;;
553;SDS011;59;48.778;9.156;2023-06-04T10:53:58;5.47;;;4.17;;
553;SDS011;59;48.778;9.156;2023-06-04T10:56:28;6.50;;;4.80;;
553;SDS011;59;48.778;9.156;2023-06-04T10:58:59;6.37;;;4.10;;
553;SDS011;59;48.778;9.156;2023-06-04T11:01:28;6.80;;;4.03;;
553;SDS011;59;48.778;9.156;2023-06-04T11:03:54;5.33;;;3.70;;
553;SDS011;59;48.778;9.156;2023-06-04T11:06:21;8.40;;;4.37;;
553;SDS011;59;48.778;9.156;2023-06-04T11:08:47;5.40;;;4.27;;
553;SDS011;59;48.778;9.156;2023-06-04T11:11:14;4.70;;;4.47;;
553;SDS011;59;48.778;9.156;2023-06-04T11:13:40;19.23;;;15.53;;
553;SDS011;59;48.778;9.156;2023-06-04T11:16:19;8.10;;;5.83;;
553;SDS011;59;48.778;9.156;2023-06-04T11:18:55;6.87;;;4.27;;
553;SDS011;59;48.778;9.156;2023-06-04T11:21:22;5.53;;;3.57;;
553;SDS011;59;48.778;9.156;2023-06-04T11:23:47;5.90;;;3.80;;
553;SDS011;59;48.778;9.156;2023-06-04T11:26:13;4.63;;;3.67;;
553;SDS011;59;48.778;9.156;2023-06-04T11:28:39;5.00;;;4.20;;
553;SDS011;59;48.778;9.156;2023-06-04T11:31:07;5.67;;;4.10;;
553;SDS011;59;48.778;9.156;2023-06-04T11:33:46;4.10;;;3.70;;
553;SDS011;59;48.778;9.156;2023-06-04T11:36:22;6.83;;;4.33;;
553;SDS011;59;48.778;9.156;2023-06-04T11:38:54;6.10;;;4.50;;
553;SDS011;59;48.778;9.156;2023-06-04T11:41:20;5.03;;;3.93;;
553;SDS011;59;48.778;9.156;2023-06-04T11:43:49;4.07;;;3.60;;
553;SDS011;59;48.778;9.156;2023-06-04T11:46:15;6.40;;;3.83;;
553;SDS011;59;48.778;9.156;2023-06-04T11:48:41;4.80;;;4.10;;
553;SDS011;59;48.778;9.156;2023-06-04T11:51:07;7.80;;;4.10;;
553;SDS011;59;48.778;9.156;2023-06-04T11:53:34;6.60;;;4.50;;
553;SDS011;59;48.778;9.156;2023-06-04T11:56:01;4.60;;;3.57;;
553;SDS011;59;48.778;9.156;2023-06-04T11:58:27;8.40;;;4.00;;
553;SDS011;59;48.778;9.156;2023-06-04T12:00:53;4.97;;;4.20;;
553;SDS011;59;48.778;9.156;2023-06-04T12:03:31;6.63;;;4.20;;
553;SDS011;59;48.778;9.156;2023-06-04T12:06:16;7.17;;;4.20;;
553;SDS011;59;48.778;9.156;2023-06-04T12:08:52;6.13;;;4.50;;
553;SDS011;59;48.778;9.156;2023-06-04T12:11:29;7.07;;;4.43;;
553;SDS011;59;48.778;9.156;2023-06-04T12:14:07;10.30;;;4.97;;
553;SDS011;59;48.778;9.156;2023-06-04T12:16:41;6.07;;;4.20;;
553;SDS011;59;48.778;9.156;2023-06-04T12:19:07;6.30;;;4.70;;
553;SDS011;59;48.778;9.156;2023-06-04T12:21:34;6.30;;;5.00;;
553;SDS011;59;48.778;9.156;2023-06-04T12:24:07;7.47;;;4.30;;
553;SDS011;59;48.778;9.156;2023-06-04T12:26:33;6.13;;;4.60;;
553;SDS011;59;48.778;9.156;2023-06-04T12:29:12;5.50;;;4.80;;
553;SDS011;59;48.778;9.156;2023-06-04T12:31:44;6.97;;;4.40;;
553;SDS011;59;48.778;9.156;2023-06-04T12:34:13;7.07;;;4.93;;
553;SDS011;59;48.778;9.156;2023-06-04T12:36:39;5.20;;;4.20;;
553;SDS011;59;48.778;9.156;2023-06-04T12:39:05;9.17;;;5.97;;
553;SDS011;59;48.778;9.156;2023-06-04T12:41:32;8.53;;;7.40;;
553;SDS011;59;48.778;9.156;2023-06-04T12:43:58;7.93;;;6.80;;
553;SDS011;59;48.778;9.156;2023-06-04T12:46:24;7.97;;;5.00;;
553;SDS011;59;48.778;9.156;2023-06-04T12:48:50;5.47;;;4.20;;
553;SDS011;59;48.778;9.156;2023-06-04T12:51:16;5.70;;;4.40;;
553;SDS011;59;48.778;9.156;2023-06-04T12:53:42;7.00;;;4.90;;
553;SDS011;59;48.778;9.156;2023-06-04T12:56:08;33.87;;;25.30;;
553;SDS011;59;48.778;9.156;2023-06-04T12:58:34;21.20;;;15.97;;
553;SDS011;59;48.778;9.156;2023-06-04T13:01:00;4.67;;;4.43;;
553;SDS011;59;48.778;9.156;2023-06-04T13:03:26;5.10;;;4.40;;
553;SDS011;59;48.778;9.156;2023-06-04T13:05:52;7.80;;;4.80;;
553;SDS011;59;48.778;9.156;2023-06-04T13:08:19;6.73;;;4.70;;
553;SDS011;59;48.778;9.156;2023-06-04T13:10:49;6.97;;;4.40;;
553;SDS011;59;48.778;9.156;2023-06-04T13:13:16;6.40;;;4.40;;
553;SDS011;59;48.778;9.156;2023-06-04T13:15:42;5.83;;;4.70;;
553;SDS011;59;48.778;9.156;2023-06-04T13:18:09;7.67;;;4.77;;
553;SDS011;59;48.778;9.156;2023-06-04T13:20:39;6.97;;;5.07;;
553;SDS011;59;48.778;9.156;2023-06-04T13:23:05;6.93;;;4.40;;
553;SDS011;59;48.778;9.156;2023-06-04T13:25:32;6.43;;;5.00;;
553;SDS011;59;48.778;9.156;2023-06-04T13:28:04;5.17;;;4.20;;
553;SDS011;59;48.778;9.156;2023-06-04T13:30:30;6.77;;;4.20;;
553;SDS011;59;48.778;9.156;2023-06-04T13:32:56;8.00;;;4.47;;
553;SDS011;59;48.778;9.156;2023-06-04T13:35:25;4.80;;;4.00;;
553;SDS011;59;48.778;9.156;2023-06-04T13:37:51;7.43;;;4.40;;
553;SDS011;59;48.778;9.156;2023-06-04T13:40:16;8.03;;;4.57;;
553;SDS011;59;48.778;9.156;2023-06-04T13:42:42;6.00;;;4.53;;
553;SDS011;59;48.778;9.156;2023-06-04T13:45:08;7.23;;;4.30;;
553;SDS011;59;48.778;9.156;2023-06-04T13:47:34;7.30;;;4.23;;
553;SDS011;59;48.778;9.156;2023-06-04T13:50:00;7.13;;;4.60;;
553;SDS011;59;48.778;9.156;2023-06-04T13:52:25;7.33;;;4.80;;
553;SDS011;59;48.778;9.156;2023-06-04T13:54:53;7.27;;;5.23;;
553;SDS011;59;48.778;9.156;2023-06-04T13:57:19;8.00;;;5.00;;
553;SDS011;59;48.778;9.156;2023-06-04T13:59:45;40.03;;;31.90;;
553;SDS011;59;48.778;9.156;2023-06-04T14:02:11;10.57;;;7.10;;
553;SDS011;59;48.778;9.156;2023-06-04T14:04:37;5.70;;;4.57;;
553;SDS011;59;48.778;9.156;2023-06-04T14:07:03;6.20;;;4.00;;
553;SDS011;59;48.778;9.156;2023-06-04T14:09:30;6.50;;;4.47;;
553;SDS011;59;48.778;9.156;2023-06-04T14:11:56;6.20;;;4.00;;
553;SDS011;59;48.778;9.156;2023-06-04T14:14:23;5.73;;;4.40;;
553;SDS011;59;48.778;9.156;2023-06-04T14:16:48;6.10;;;4.57;;
553;SDS011;59;48.778;9.156;2023-06-04T14:19:15;5.30;;;3.53;;
553;SDS011;59;48.778;9.156;2023-06-04T14:21:41;6.70;;;4.13;;
553;SDS011;59;48.778;9.156;2023-06-04T14:24:08;5.83;;;4.37;;
553;SDS011;59;48.778;9.156;2023-06-04T14:26:34;6.50;;;4.70;;
553;SDS011;59;48.778;9.156;2023-06-04T14:29:00;4.80;;;3.97;;
553;SDS011;59;48.778;9.156;2023-06-04T14:31:26;4.83;;;3.90;;
553;SDS011;59;48.778;9.156;2023-06-04T14:33:52;6.37;;;4.03;;
553;SDS011;59;48.778;9.156;2023-06-04T14:36:17;5.50;;;4.00;;
553;SDS011;59;48.778;9.156;2023-06-04T14:38:43;4.77;;;3.83;;
553;SDS011;59;48.778;9.156;2023-06-04T14:41:09;8.80;;;3.60;;
553;SDS011;59;48.778;9.156;2023-06-04T14:43:35;5.77;;;3.73;;
553;SDS011;59;48.778;9.156;2023-06-04T14:46:01;4.57;;;3.70;;
553;SDS011;59;48.778;9.156;2023-06-04T14:48:27;5.47;;;4.10;;
553;SDS011;59;48.778;9.156;2023-06-04T14:50:52;5.67;;;4.20;;
553;SDS011;59;48.778;9.156;2023-06-04T14:53:19;4.13;;;3.93;;
553;SDS011;59;48.778;9.156;2023-06-04T14:55:45;4.97;;;3.77;;
553;SDS011;59;48.778;9.156;2023-06-04T14:58:11;4.80;;;3.70;;
553;SDS011;59;48.778;9.156;2023-06-04T15:00:37;8.00;;;4.27;;
553;SDS011;59;48.778;9.156;2023-06-04T15:03:04;7.03;;;3.70;;
553;SDS011;59;48.778;9.156;2023-06-04T15:05:32;6.20;;;4.13;;
553;SDS011;59;48.778;9.156;2023-06-04T15:07:58;7.47;;;4.03;;
553;SDS011;59;48.778;9.156;2023-06-04T15:10:25;4.87;;;4.00;;
553;SDS011;59;48.778;9.156;2023-06-04T15:12:54;4.57;;;3.70;;
553;SDS011;59;48.778;9.156;2023-06-04T15:15:20;6.00;;;3.90;;
553;SDS011;59;48.778;9.156;2023-06-04T15:17:47;6.60;;;4.50;;
553;SDS011;59;48.778;9.156;2023-06-04T15:20:13;4.40;;;3.90;;
553;SDS011;59;48.778;9.156;2023-06-04T15:22:39;5.93;;;4.10;;
553;SDS011;59;48.778;9.156;2023-06-04T15:25:05;5.20;;;3.50;;
553;SDS011;59;48.778;9.156;2023-06-04T15:27:31;4.90;;;4.00;;
553;SDS011;59;48.778;9.156;2023-06-04T15:29:57;5.20;;;3.83;;
553;SDS011;59;48.778;9.156;2023-06-04T15:32:22;5.80;;;4.00;;
553;SDS011;59;48.778;9.156;2023-06-04T15:34:49;6.37;;;4.00;;
553;SDS011;59;48.778;9.156;2023-06-04T15:37:15;5.93;;;4.13;;
553;SDS011;59;48.778;9.156;2023-06-04T15:39:41;5.53;;;4.13;;
553;SDS011;59;48.778;9.156;2023-06-04T15:42:06;5.67;;;3.83;;
553;SDS011;59;48.778;9.156;2023-06-04T15:44:32;5.00;;;3.87;;
553;SDS011;59;48.778;9.156;2023-06-04T15:46:59;4.77;;;4.03;;
553;SDS011;59;48.778;9.156;2023-06-04T15:49:24;6.00;;;4.43;;
553;SDS011;59;48.778;9.156;2023-06-04T15:51:51;5.47;;;4.30;;
553;SDS011;59;48.778;9.156;2023-06-04T15:54:16;4.83;;;3.93;;
553;SDS011;59;48.778;9.156;2023-06-04T15:56:42;6.00;;;4.60;;
553;SDS011;59;48.778;9.156;2023-06-04T15:59:08;5.43;;;4.00;;
553;SDS011;59;48.778;9.156;2023-06-04T16:01:33;5.90;;;4.17;;
553;SDS011;59;48.778;9.156;2023-06-04T16:03:59;4.80;;;4.07;;
553;SDS011;59;48.778;9.156;2023-06-04T16:06:24;5.33;;;4.07;;
553;SDS011;59;48.778;9.156;2023-06-04T16:08:51;6.20;;;4.07;;
553;SDS011;59;48.778;9.156;2023-06-04T16:11:17;5.60;;;3.90;;
553;SDS011;59;48.778;9.156;2023-06-04T16:13:44;4.67;;;3.90;;
553;SDS011;59;48.778;9.156;2023-06-04T16:16:10;4.63;;;4.00;;
553;SDS011;59;48.778;9.156;2023-06-04T16:18:37;5.67;;;4.10;;
553;SDS011;59;48.778;9.156;2023-06-04T16:21:05;5.33;;;4.20;;
553;SDS011;59;48.778;9.156;2023-06-04T16:26:25;4.93;;;4.10;;